createdAt,value
2022-08-21T00:01:01.243Z,64.57
2022-08-21T00:03:06.372Z,64.93
2022-08-21T00:05:08.266Z,64.11
2022-08-21T00:07:10.046Z,63.77
2022-08-21T00:09:11.884Z,63.70
2022-08-21T00:11:14.150Z,63.59
2022-08-21T00:13:18.877Z,63.52
2022-08-21T00:15:27.111Z,63.59
2022-08-21T00:17:28.803Z,63.67
2022-08-21T00:19:32.660Z,63.43
2022-08-21T00:23:53.789Z,63.97
2022-08-21T00:25:55.482Z,63.91
2022-08-21T00:27:57.462Z,64.01
2022-08-21T00:30:00.555Z,64.16
2022-08-21T00:32:02.430Z,64.35
2022-08-21T00:34:06.749Z,64.24
2022-08-21T00:36:08.919Z,63.83
2022-08-21T00:38:11.136Z,63.77
2022-08-21T00:40:18.172Z,63.98
2022-08-21T00:42:21.243Z,63.43
2022-08-21T00:44:23.002Z,62.78
2022-08-21T00:46:34.686Z,62.56
2022-08-21T00:49:00.439Z,62.49
2022-08-21T00:54:27.453Z,63.08
2022-08-21T00:56:30.245Z,63.22
2022-08-21T00:58:32.204Z,63.43
2022-08-21T01:00:40.267Z,63.40
2022-08-21T01:02:42.382Z,63.62
2022-08-21T01:04:43.946Z,63.52
2022-08-21T01:06:45.992Z,63.42
2022-08-21T01:08:47.925Z,63.30
2022-08-21T01:11:02.367Z,62.97
2022-08-21T01:13:09.502Z,63.09
2022-08-21T01:15:17.746Z,62.47
2022-08-21T01:17:20.936Z,62.09
2022-08-21T01:19:23.080Z,62.17
2022-08-21T01:21:28.064Z,62.44
2022-08-21T01:23:30.729Z,62.93
2022-08-21T01:25:32.891Z,63.46
2022-08-21T01:27:35.702Z,63.20
2022-08-21T01:29:42.961Z,63.40
2022-08-21T01:31:45.153Z,63.17
2022-08-21T01:33:46.696Z,63.17
2022-08-21T01:35:48.484Z,63.29
2022-08-21T01:37:50.253Z,63.27
2022-08-21T01:39:54.554Z,63.53
2022-08-21T01:41:56.553Z,63.40
2022-08-21T01:43:58.299Z,63.39
2022-08-21T01:45:59.951Z,63.03
2022-08-21T01:48:01.610Z,63.42
2022-08-21T01:50:06.388Z,63.66
2022-08-21T01:52:09.532Z,63.80
2022-08-21T01:54:23.858Z,64.00
2022-08-21T01:56:28.995Z,64.28
2022-08-21T01:58:30.903Z,64.09
2022-08-21T02:00:32.689Z,63.88
2022-08-21T02:02:35.046Z,63.79
2022-08-21T02:04:36.651Z,63.53
2022-08-21T02:06:38.870Z,63.59
2022-08-21T02:08:41.187Z,63.78
2022-08-21T02:10:43.698Z,64.07
2022-08-21T02:12:50.836Z,64.14
2022-08-21T02:14:55.944Z,64.18
2022-08-21T02:17:21.752Z,64.02
2022-08-21T02:19:27.304Z,64.00
2022-08-21T02:21:42.043Z,64.13
2022-08-21T02:23:43.827Z,64.32
2022-08-21T02:25:46.732Z,64.39
2022-08-21T02:28:11.633Z,64.23
2022-08-21T02:30:19.074Z,64.28
2022-08-21T02:32:22.366Z,64.06
2022-08-21T02:34:24.070Z,63.85
2022-08-21T02:36:32.313Z,64.17
2022-08-21T02:38:46.347Z,64.30
2022-08-21T02:41:06.143Z,64.11
2022-08-21T02:43:08.416Z,63.74
2022-08-21T02:45:14.520Z,64.06
2022-08-21T02:47:16.329Z,64.14
2022-08-21T02:49:18.014Z,64.46
2022-08-21T02:51:21.006Z,64.81
2022-08-21T02:53:22.917Z,64.52
2022-08-21T02:55:27.306Z,64.13
2022-08-21T02:57:29.017Z,63.87
2022-08-21T02:59:31.773Z,64.35
2022-08-21T03:01:33.485Z,63.99
2022-08-21T03:03:36.262Z,64.30
2022-08-21T03:05:38.792Z,63.68
2022-08-21T03:07:40.544Z,63.31
2022-08-21T03:09:50.721Z,63.37
2022-08-21T03:11:58.765Z,64.23
2022-08-21T03:14:00.766Z,64.43
2022-08-21T03:16:02.613Z,64.80
2022-08-21T03:18:08.893Z,64.37
2022-08-21T03:20:11.835Z,64.25
2022-08-21T03:22:13.527Z,64.81
2022-08-21T03:24:15.451Z,64.54
2022-08-21T03:26:20.646Z,64.63
2022-08-21T03:28:23.600Z,64.98
2022-08-21T03:30:28.299Z,65.25
2022-08-21T03:32:42.358Z,64.97
2022-08-21T03:34:44.516Z,65.22
2022-08-21T03:36:55.203Z,65.16
2022-08-21T03:38:56.892Z,65.10
2022-08-21T03:41:17.311Z,64.92
2022-08-21T03:43:19.469Z,65.28
2022-08-21T03:45:21.411Z,65.94
2022-08-21T03:47:23.567Z,65.76
2022-08-21T03:49:25.631Z,65.87
2022-08-21T03:51:27.473Z,66.00
2022-08-21T03:53:29.290Z,65.30
2022-08-21T03:55:53.749Z,65.76
2022-08-21T03:57:55.523Z,65.55
2022-08-21T03:59:57.184Z,65.37
2022-08-21T04:02:01.461Z,65.27
2022-08-21T04:04:04.903Z,65.30
2022-08-21T04:06:07.394Z,65.15
2022-08-21T04:08:09.374Z,65.55
2022-08-21T04:10:13.321Z,65.36
2022-08-21T04:12:14.999Z,65.63
2022-08-21T04:14:17.278Z,65.74
2022-08-21T04:16:20.516Z,65.56
2022-08-21T04:18:22.446Z,65.43
2022-08-21T04:20:26.026Z,65.48
2022-08-21T04:22:27.874Z,65.27
2022-08-21T04:24:29.570Z,65.57
2022-08-21T04:26:32.096Z,65.40
2022-08-21T04:28:33.814Z,65.28
2022-08-21T04:30:35.557Z,65.16
2022-08-21T04:32:38.179Z,65.23
2022-08-21T04:34:39.846Z,64.95
2022-08-21T04:36:41.726Z,65.17
2022-08-21T04:38:44.828Z,65.39
2022-08-21T04:40:46.606Z,65.15
2022-08-21T04:42:51.566Z,65.73
2022-08-21T04:44:53.404Z,65.40
2022-08-21T04:46:55.250Z,65.65
2022-08-21T04:48:57.398Z,65.73
2022-08-21T04:51:02.049Z,65.60
2022-08-21T04:53:06.045Z,65.75
2022-08-21T04:55:09.431Z,65.88
2022-08-21T04:57:12.150Z,65.45
2022-08-21T04:59:48.935Z,65.72
2022-08-21T05:01:51.222Z,65.56
2022-08-21T05:03:56.716Z,65.68
2022-08-21T05:05:58.874Z,65.57
2022-08-21T05:08:00.677Z,65.37
2022-08-21T05:10:02.434Z,65.52
2022-08-21T05:12:04.570Z,66.19
2022-08-21T05:14:06.113Z,66.50
2022-08-21T05:16:08.324Z,66.74
2022-08-21T05:18:10.426Z,67.01
2022-08-21T05:20:13.298Z,66.99
2022-08-21T05:22:21.034Z,67.02
2022-08-21T05:24:22.720Z,66.40
2022-08-21T05:26:24.411Z,66.72
2022-08-21T05:28:26.905Z,66.84
2022-08-21T05:34:22.935Z,67.40
2022-08-21T05:36:25.592Z,67.71
2022-08-21T05:38:44.467Z,67.37
2022-08-21T05:40:58.496Z,67.07
2022-08-21T05:43:01.215Z,66.83
2022-08-21T05:45:03.193Z,66.73
2022-08-21T05:47:09.732Z,66.52
2022-08-21T05:49:12.229Z,66.37
2022-08-21T05:51:16.098Z,66.48
2022-08-21T05:53:19.260Z,66.77
2022-08-21T05:55:20.989Z,67.00
2022-08-21T05:57:23.209Z,67.18
2022-08-21T05:59:25.038Z,67.43
2022-08-21T06:01:26.749Z,67.87
2022-08-21T06:03:31.839Z,68.17
2022-08-21T06:05:36.818Z,68.14
2022-08-21T06:11:31.402Z,68.51
2022-08-21T06:13:34.206Z,67.97
2022-08-21T06:15:36.018Z,68.38
2022-08-21T06:17:40.941Z,68.47
2022-08-21T06:19:42.929Z,68.28
2022-08-21T06:21:47.855Z,67.99
2022-08-21T06:23:59.081Z,67.73
2022-08-21T06:26:02.468Z,67.90
2022-08-21T06:28:11.291Z,67.84
2022-08-21T06:30:13.076Z,67.99
2022-08-21T06:32:14.921Z,68.28
2022-08-21T06:34:18.526Z,67.91
2022-08-21T06:36:22.056Z,67.83
2022-08-21T06:38:23.719Z,67.78
2022-08-21T06:40:27.365Z,67.61
2022-08-21T06:42:31.632Z,67.59
2022-08-21T06:44:33.499Z,67.57
2022-08-21T06:46:35.340Z,67.50
2022-08-21T06:48:37.368Z,67.50
2022-08-21T06:50:41.958Z,67.44
2022-08-21T06:52:43.758Z,67.87
2022-08-21T06:54:45.481Z,68.17
2022-08-21T06:56:47.474Z,68.09
2022-08-21T06:58:49.138Z,67.94
2022-08-21T07:00:52.489Z,67.86
2022-08-21T07:03:08.674Z,68.00
2022-08-21T07:05:18.261Z,68.18
2022-08-21T07:07:20.384Z,68.18
2022-08-21T07:09:24.686Z,68.13
2022-08-21T07:11:27.149Z,67.92
2022-08-21T07:13:29.046Z,67.56
2022-08-21T07:15:34.142Z,67.54
2022-08-21T07:17:35.971Z,67.53
2022-08-21T07:19:37.895Z,67.45
2022-08-21T07:21:40.840Z,67.50
2022-08-21T07:23:45.947Z,67.82
2022-08-21T07:25:50.525Z,67.94
2022-08-21T07:27:52.210Z,67.77
2022-08-21T07:29:53.874Z,67.58
2022-08-21T07:31:55.778Z,67.41
2022-08-21T07:33:57.675Z,67.15
2022-08-21T07:36:01.187Z,67.01
2022-08-21T07:38:03.007Z,66.73
2022-08-21T07:40:06.683Z,66.21
2022-08-21T07:42:09.059Z,66.16
2022-08-21T07:44:12.662Z,65.93
2022-08-21T07:46:14.992Z,65.66
2022-08-21T07:48:17.106Z,65.61
2022-08-21T07:50:19.310Z,65.49
2022-08-21T07:52:20.995Z,65.53
2022-08-21T07:54:33.390Z,65.36
2022-08-21T07:56:35.750Z,65.54
2022-08-21T07:58:37.491Z,65.28
2022-08-21T08:00:42.350Z,65.45
2022-08-21T08:02:46.347Z,65.15
2022-08-21T08:04:50.610Z,64.97
2022-08-21T08:06:53.299Z,65.03
2022-08-21T08:08:54.858Z,64.85
2022-08-21T08:10:57.658Z,64.60
2022-08-21T08:13:00.201Z,64.58
2022-08-21T08:15:03.727Z,64.35
2022-08-21T08:17:05.401Z,63.79
2022-08-21T08:19:20.545Z,63.38
2022-08-21T08:21:22.566Z,63.21
2022-08-21T08:23:24.154Z,62.94
2022-08-21T08:25:27.594Z,63.20
2022-08-21T08:27:34.606Z,62.75
2022-08-21T08:29:38.477Z,62.50
2022-08-21T08:31:40.160Z,62.48
2022-08-21T08:33:41.871Z,62.20
2022-08-21T08:35:49.478Z,61.91
2022-08-21T08:37:52.614Z,61.80
2022-08-21T08:40:04.612Z,62.03
2022-08-21T08:42:32.943Z,61.57
2022-08-21T08:44:47.254Z,61.24
2022-08-21T08:46:51.534Z,60.48
2022-08-21T08:49:25.817Z,60.25
2022-08-21T08:51:36.832Z,59.97
2022-08-21T08:53:48.457Z,60.00
2022-08-21T08:55:53.039Z,59.81
2022-08-21T08:57:57.807Z,58.95
2022-08-21T09:00:02.561Z,58.87
2022-08-21T09:02:05.387Z,58.27
2022-08-21T09:04:07.342Z,57.95
2022-08-21T09:06:17.874Z,57.99
2022-08-21T09:08:25.522Z,57.48
2022-08-21T09:11:03.718Z,57.40
2022-08-21T09:13:48.008Z,57.17
2022-08-21T09:16:20.528Z,57.54
2022-08-21T09:18:22.100Z,57.47
2022-08-21T09:21:01.599Z,56.73
2022-08-21T09:23:34.634Z,56.62
2022-08-21T09:26:13.001Z,55.96
2022-08-21T09:28:15.825Z,56.28
2022-08-21T09:30:19.069Z,56.27
2022-08-21T09:32:36.638Z,55.54
2022-08-21T09:34:39.585Z,55.32
2022-08-21T09:36:46.316Z,55.45
2022-08-21T09:38:55.238Z,54.77
2022-08-21T09:41:01.172Z,54.91
2022-08-21T09:43:11.780Z,55.09
2022-08-21T09:45:18.966Z,54.56
2022-08-21T09:47:25.074Z,54.98
2022-08-21T09:49:29.976Z,55.05
2022-08-21T09:51:34.315Z,54.87
2022-08-21T09:54:26.191Z,54.48
2022-08-21T09:56:53.759Z,54.62
2022-08-21T09:58:58.414Z,53.95
2022-08-21T10:01:03.427Z,53.17
2022-08-21T10:03:21.995Z,52.84
2022-08-21T10:05:26.658Z,52.13
2022-08-21T10:07:31.209Z,51.37
2022-08-21T10:09:33.703Z,50.91
2022-08-21T10:11:36.090Z,51.49
2022-08-21T10:14:16.154Z,49.61
2022-08-21T10:17:15.274Z,49.44
2022-08-21T10:19:24.513Z,50.00
2022-08-21T10:21:41.826Z,49.74
2022-08-21T10:23:52.282Z,50.06
2022-08-21T10:26:44.947Z,48.94
2022-08-21T10:29:22.503Z,48.47
2022-08-21T10:31:48.247Z,48.46
2022-08-21T10:34:23.138Z,48.35
2022-08-21T10:36:32.884Z,48.39
2022-08-21T10:39:17.743Z,49.23
2022-08-21T10:42:04.183Z,48.57
2022-08-21T10:44:23.019Z,48.09
2022-08-21T10:46:39.111Z,46.93
2022-08-21T10:48:49.106Z,46.02
2022-08-21T10:51:07.987Z,44.67
2022-08-21T10:53:30.884Z,44.36
2022-08-21T10:55:41.653Z,44.89
2022-08-21T10:57:49.098Z,44.42
2022-08-21T10:59:56.870Z,43.37
2022-08-21T11:02:04.116Z,43.32
2022-08-21T11:04:17.649Z,42.99
2022-08-21T11:06:23.574Z,42.09
2022-08-21T11:08:30.235Z,41.49
2022-08-21T11:10:40.776Z,40.68
2022-08-21T11:12:51.889Z,40.37
2022-08-21T11:15:29.835Z,40.47
2022-08-21T11:17:44.927Z,39.93
2022-08-21T11:19:51.452Z,40.43
2022-08-21T11:22:05.425Z,40.53
2022-08-21T11:24:16.289Z,40.39
2022-08-21T11:26:24.961Z,40.06
2022-08-21T11:28:37.004Z,39.91
2022-08-21T11:31:08.081Z,39.47
2022-08-21T11:33:18.494Z,38.43
2022-08-21T11:36:14.647Z,37.69
2022-08-21T11:38:39.781Z,36.73
2022-08-21T11:41:00.161Z,36.21
2022-08-21T11:43:18.220Z,35.65
2022-08-21T11:45:39.154Z,34.81
2022-08-21T11:48:16.230Z,34.81
2022-08-21T11:50:36.088Z,34.71
2022-08-21T11:52:53.583Z,34.25
2022-08-21T11:55:03.826Z,34.96
2022-08-21T11:57:13.629Z,34.81
2022-08-21T11:59:32.311Z,35.45
2022-08-21T12:01:38.062Z,35.61
2022-08-21T12:03:58.851Z,35.97
2022-08-21T12:06:09.068Z,36.48
2022-08-21T12:08:10.677Z,36.52
2022-08-21T12:10:21.995Z,36.25
2022-08-21T12:12:28.293Z,36.35
2022-08-21T12:14:46.430Z,35.71
2022-08-21T12:16:51.738Z,35.34
2022-08-21T12:19:13.197Z,34.62
2022-08-21T12:21:20.975Z,34.25
2022-08-21T12:23:33.539Z,33.79
2022-08-21T12:25:42.150Z,33.83
2022-08-21T12:27:49.195Z,34.03
2022-08-21T12:30:02.968Z,33.97
2022-08-21T12:32:06.282Z,34.17
2022-08-21T12:34:10.961Z,34.09
2022-08-21T12:36:22.452Z,34.51
2022-08-21T12:38:31.195Z,35.32
2022-08-21T12:40:43.081Z,36.08
2022-08-21T12:42:58.258Z,36.88
2022-08-21T12:45:39.944Z,37.78
2022-08-21T12:47:50.295Z,38.77
2022-08-21T12:50:01.118Z,39.50
2022-08-21T12:52:10.090Z,39.94
2022-08-21T12:54:31.667Z,40.46
2022-08-21T12:56:36.546Z,41.03
2022-08-21T12:58:42.409Z,41.42
2022-08-21T13:00:50.451Z,41.50
2022-08-21T13:02:53.286Z,41.68
2022-08-21T13:04:57.491Z,41.91
2022-08-21T13:07:00.120Z,42.23
2022-08-21T13:09:07.943Z,42.36
2022-08-21T13:11:15.314Z,42.74
2022-08-21T13:13:25.013Z,42.37
2022-08-21T13:15:33.438Z,42.36
2022-08-21T13:17:38.761Z,42.76
2022-08-21T13:19:40.554Z,42.59
2022-08-21T13:21:42.969Z,42.99
2022-08-21T13:23:45.109Z,43.20
2022-08-21T13:29:16.287Z,42.34
2022-08-21T13:31:28.261Z,42.22
2022-08-21T13:33:36.305Z,42.36
2022-08-21T13:35:57.721Z,41.68
2022-08-21T13:38:00.045Z,41.45
2022-08-21T13:40:01.970Z,41.63
2022-08-21T13:42:07.666Z,41.44
2022-08-21T13:44:27.468Z,41.52
2022-08-21T13:46:35.043Z,41.73
2022-08-21T13:48:37.517Z,41.72
2022-08-21T13:50:39.533Z,41.71
2022-08-21T13:52:54.548Z,41.63
2022-08-21T13:54:59.353Z,41.75
2022-08-21T13:57:01.102Z,41.67
2022-08-21T13:59:03.735Z,41.10
2022-08-21T14:01:06.881Z,41.27
2022-08-21T14:03:26.772Z,40.92
2022-08-21T14:05:30.439Z,40.46
2022-08-21T14:07:35.581Z,40.56
2022-08-21T14:09:43.863Z,39.92
2022-08-21T14:11:45.708Z,39.62
2022-08-21T14:13:51.289Z,39.82
2022-08-21T14:15:59.259Z,39.87
2022-08-21T14:18:21.087Z,40.13
2022-08-21T14:20:36.536Z,40.57
2022-08-21T14:22:45.541Z,41.31
2022-08-21T14:24:47.258Z,41.72
2022-08-21T14:27:05.459Z,41.76
2022-08-21T14:29:10.532Z,42.17
2022-08-21T14:31:20.441Z,42.60
2022-08-21T14:33:33.069Z,42.51
2022-08-21T14:35:34.719Z,43.20
2022-08-21T14:37:36.397Z,43.28
2022-08-21T14:39:38.063Z,43.15
2022-08-21T14:41:42.969Z,43.14
2022-08-21T14:43:46.122Z,43.29
2022-08-21T14:45:48.377Z,43.03
2022-08-21T14:47:53.192Z,43.05
2022-08-21T14:49:55.256Z,42.77
2022-08-21T14:51:58.919Z,42.69
2022-08-21T14:54:03.460Z,42.81
2022-08-21T14:56:08.053Z,42.70
2022-08-21T14:58:09.766Z,42.98
2022-08-21T15:00:12.460Z,43.02
2022-08-21T15:02:16.867Z,43.03
2022-08-21T15:04:18.614Z,43.14
2022-08-21T15:06:22.012Z,43.38
2022-08-21T15:08:23.796Z,43.19
2022-08-21T15:10:25.541Z,42.87
2022-08-21T15:12:27.086Z,42.92
2022-08-21T15:14:31.082Z,42.63
2022-08-21T15:16:32.805Z,42.78
2022-08-21T15:18:34.391Z,42.72
2022-08-21T15:20:36.760Z,42.78
2022-08-21T15:22:38.442Z,42.63
2022-08-21T15:24:40.001Z,42.62
2022-08-21T15:26:41.656Z,42.42
2022-08-21T15:28:43.255Z,42.71
2022-08-21T15:30:47.250Z,42.31
2022-08-21T15:32:48.961Z,42.12
2022-08-21T15:34:51.670Z,42.25
2022-08-21T15:36:56.204Z,42.13
2022-08-21T15:38:58.906Z,42.17
2022-08-21T15:41:00.446Z,42.15
2022-08-21T15:43:04.186Z,41.93
2022-08-21T15:45:06.521Z,41.41
2022-08-21T15:47:13.942Z,41.01
2022-08-21T15:49:15.631Z,40.33
2022-08-21T15:51:20.960Z,39.34
2022-08-21T15:53:23.042Z,38.36
2022-08-21T15:55:25.343Z,36.76
2022-08-21T15:57:27.694Z,36.34
2022-08-21T15:59:35.225Z,35.79
2022-08-21T16:01:44.606Z,35.81
2022-08-21T16:03:49.937Z,35.67
2022-08-21T16:05:53.421Z,35.58
2022-08-21T16:07:55.294Z,35.99
2022-08-21T16:09:57.306Z,36.11
2022-08-21T16:12:01.180Z,36.49
2022-08-21T16:14:03.098Z,36.39
2022-08-21T16:16:08.523Z,37.03
2022-08-21T16:18:10.912Z,37.22
2022-08-21T16:20:14.453Z,37.66
2022-08-21T16:22:16.555Z,38.19
2022-08-21T16:24:18.272Z,38.29
2022-08-21T16:26:20.028Z,38.63
2022-08-21T16:28:22.104Z,39.23
2022-08-21T16:30:26.415Z,39.17
2022-08-21T16:32:29.758Z,39.38
2022-08-21T16:34:31.504Z,39.47
2022-08-21T16:36:33.263Z,39.77
2022-08-21T16:38:38.015Z,39.41
2022-08-21T16:40:40.209Z,39.85
2022-08-21T16:42:43.560Z,39.97
2022-08-21T16:44:48.615Z,40.07
2022-08-21T16:46:50.617Z,40.01
2022-08-21T16:48:55.222Z,40.09
2022-08-21T16:50:58.145Z,40.25
2022-08-21T16:53:06.718Z,40.82
2022-08-21T16:55:09.143Z,40.92
2022-08-21T16:57:11.929Z,41.41
2022-08-21T16:59:13.826Z,41.68
2022-08-21T17:01:21.390Z,42.25
2022-08-21T17:03:28.200Z,42.72
2022-08-21T17:05:29.938Z,42.57
2022-08-21T17:07:36.454Z,42.64
2022-08-21T17:09:38.721Z,43.03
2022-08-21T17:11:47.680Z,43.09
2022-08-21T17:13:49.425Z,43.38
2022-08-21T17:15:51.146Z,43.55
2022-08-21T17:17:53.127Z,43.77
2022-08-21T17:19:55.206Z,43.90
2022-08-21T17:21:56.869Z,44.12
2022-08-21T17:23:58.813Z,44.35
2022-08-21T17:26:01.200Z,44.55
2022-08-21T17:28:06.525Z,44.56
2022-08-21T17:30:09.162Z,44.75
2022-08-21T17:32:18.385Z,44.91
2022-08-21T17:34:20.469Z,45.16
2022-08-21T17:36:27.942Z,45.29
2022-08-21T17:38:31.010Z,45.48
2022-08-21T17:40:36.461Z,45.55
2022-08-21T17:42:44.610Z,45.70
2022-08-21T17:44:46.387Z,45.52
2022-08-21T17:46:47.957Z,45.57
2022-08-21T17:48:49.808Z,45.51
2022-08-21T17:50:51.957Z,45.67
2022-08-21T17:52:54.139Z,45.54
2022-08-21T17:54:56.180Z,45.70
2022-08-21T17:56:58.296Z,45.79
2022-08-21T17:59:00.351Z,45.84
2022-08-21T18:01:05.572Z,45.70
2022-08-21T18:03:14.824Z,45.52
2022-08-21T18:05:16.835Z,45.26
2022-08-21T18:07:31.888Z,45.20
2022-08-21T18:09:34.453Z,44.74
2022-08-21T18:11:37.470Z,45.03
2022-08-21T18:13:40.473Z,44.87
2022-08-21T18:15:46.660Z,45.15
2022-08-21T18:17:50.209Z,45.19
2022-08-21T18:19:52.226Z,45.52
2022-08-21T18:21:55.481Z,46.05
2022-08-21T18:23:57.315Z,46.27
2022-08-21T18:25:58.945Z,46.66
2022-08-21T18:28:03.819Z,47.10
2022-08-21T18:30:06.530Z,47.44
2022-08-21T18:32:08.338Z,47.74
2022-08-21T18:34:41.561Z,48.14
2022-08-21T18:36:43.411Z,48.31
2022-08-21T18:38:45.307Z,48.62
2022-08-21T18:40:55.746Z,48.91
2022-08-21T18:43:00.554Z,49.23
2022-08-21T18:45:07.507Z,49.43
2022-08-21T18:47:20.744Z,49.90
2022-08-21T18:49:22.445Z,50.07
2022-08-21T18:51:24.606Z,50.47
2022-08-21T18:53:30.576Z,50.89
2022-08-21T18:55:33.648Z,51.19
2022-08-21T18:57:37.029Z,51.32
2022-08-21T18:59:40.151Z,51.45
2022-08-21T19:01:44.554Z,51.67
2022-08-21T19:03:50.205Z,51.97
2022-08-21T19:05:52.769Z,52.19
2022-08-21T19:07:57.290Z,52.42
2022-08-21T19:10:24.565Z,52.79
2022-08-21T19:12:25.187Z,53.08
2022-08-21T19:14:31.457Z,53.17
2022-08-21T19:16:33.423Z,53.13
2022-08-21T19:18:40.362Z,53.54
2022-08-21T19:20:42.838Z,53.49
2022-08-21T19:22:48.655Z,53.94
2022-08-21T19:24:55.477Z,54.04
2022-08-21T19:26:57.538Z,54.22
2022-08-21T19:29:03.774Z,54.35
2022-08-21T19:31:16.446Z,54.68
2022-08-21T19:33:24.027Z,54.71
2022-08-21T19:35:25.817Z,54.98
2022-08-21T19:37:27.870Z,55.44
2022-08-21T19:39:31.251Z,55.21
2022-08-21T19:41:36.593Z,55.52
2022-08-21T19:43:42.900Z,55.86
2022-08-21T19:45:46.341Z,55.77
2022-08-21T19:47:53.827Z,56.38
2022-08-21T19:49:59.826Z,56.39
2022-08-21T19:52:02.328Z,56.54
2022-08-21T19:54:18.090Z,56.81
2022-08-21T19:56:23.154Z,56.81
2022-08-21T19:58:40.330Z,56.71
2022-08-21T20:00:44.934Z,56.94
2022-08-21T20:05:08.859Z,57.30
2022-08-21T20:07:10.723Z,57.50
2022-08-21T20:09:17.039Z,57.61
2022-08-21T20:11:25.364Z,57.59
2022-08-21T20:13:32.492Z,57.44
2022-08-21T20:15:34.907Z,57.57
2022-08-21T20:17:38.801Z,57.78
2022-08-21T20:19:43.471Z,58.01
2022-08-21T20:21:45.605Z,57.93
2022-08-21T20:23:49.434Z,57.75
2022-08-21T20:25:51.372Z,56.96
2022-08-21T20:27:53.274Z,56.90
2022-08-21T20:29:55.616Z,57.00
2022-08-21T20:31:58.308Z,57.27
2022-08-21T20:34:00.064Z,57.21
2022-08-21T20:36:01.869Z,57.51
2022-08-21T20:38:04.319Z,57.73
2022-08-21T20:40:11.082Z,57.85
2022-08-21T20:42:13.444Z,57.96
2022-08-21T20:44:15.247Z,57.97
2022-08-21T20:46:21.273Z,57.98
2022-08-21T20:48:30.843Z,58.35
2022-08-21T20:50:37.067Z,58.33
2022-08-21T20:52:39.375Z,58.85
2022-08-21T20:54:51.744Z,58.75
2022-08-21T20:57:04.064Z,58.64
2022-08-21T20:59:38.847Z,58.88
2022-08-21T21:01:41.911Z,58.68
2022-08-21T21:04:10.022Z,59.22
2022-08-21T21:06:23.190Z,59.56
2022-08-21T21:08:46.721Z,58.95
2022-08-21T21:10:55.032Z,58.85
2022-08-21T21:13:01.285Z,58.48
2022-08-21T21:15:10.131Z,58.39
2022-08-21T21:17:28.441Z,58.68
2022-08-21T21:22:01.470Z,59.42
2022-08-21T21:24:12.131Z,59.13
2022-08-21T21:26:21.867Z,58.92
2022-08-21T21:28:39.411Z,58.51
2022-08-21T21:30:46.939Z,58.61
2022-08-21T21:32:54.049Z,58.65
2022-08-21T21:34:55.971Z,58.80
2022-08-21T21:37:04.193Z,59.13
2022-08-21T21:39:37.722Z,59.32
2022-08-21T21:41:42.817Z,59.66
2022-08-21T21:44:01.219Z,59.32
2022-08-21T21:46:02.817Z,59.37
2022-08-21T21:48:42.631Z,59.07
2022-08-21T21:51:00.744Z,59.05
2022-08-21T21:53:12.229Z,59.63
2022-08-21T21:55:32.722Z,59.96
2022-08-21T21:57:59.257Z,60.47
2022-08-21T22:00:18.325Z,60.40
2022-08-21T22:02:32.153Z,60.24
2022-08-21T22:04:55.097Z,60.60
2022-08-21T22:07:21.498Z,60.84
2022-08-21T22:09:40.247Z,60.81
2022-08-21T22:11:55.566Z,60.51
2022-08-21T22:14:16.199Z,60.36
2022-08-21T22:16:20.709Z,60.36
2022-08-21T22:18:25.729Z,59.84
2022-08-21T22:20:32.270Z,59.82
2022-08-21T22:22:34.818Z,60.17
2022-08-21T22:24:42.787Z,60.65
2022-08-21T22:27:05.180Z,60.63
2022-08-21T22:29:16.943Z,60.48
2022-08-21T22:31:22.739Z,60.84
2022-08-21T22:33:27.945Z,61.18
2022-08-21T22:35:32.577Z,61.24
2022-08-21T22:37:38.044Z,61.07
2022-08-21T22:39:54.192Z,61.12
2022-08-21T22:41:55.869Z,60.97
2022-08-21T22:44:03.319Z,61.08
2022-08-21T22:46:07.976Z,61.04
2022-08-21T22:48:11.199Z,61.24
2022-08-21T22:50:27.175Z,61.35
2022-08-21T22:52:36.530Z,61.47
2022-08-21T22:54:43.181Z,61.33
2022-08-21T22:56:49.426Z,61.09
2022-08-21T22:59:01.975Z,60.91
2022-08-21T23:01:12.961Z,61.03
2022-08-21T23:03:31.768Z,61.43
2022-08-21T23:05:46.287Z,61.81
2022-08-21T23:10:26.195Z,62.07
2022-08-21T23:12:35.820Z,61.83
2022-08-21T23:14:37.516Z,61.74
2022-08-21T23:17:08.924Z,61.72
2022-08-21T23:19:37.996Z,61.68
2022-08-21T23:22:04.569Z,61.68
2022-08-21T23:24:20.798Z,61.67
2022-08-21T23:26:35.691Z,61.46
2022-08-21T23:28:55.617Z,61.34
2022-08-21T23:31:30.426Z,61.70
2022-08-21T23:33:42.032Z,61.41
2022-08-21T23:36:47.373Z,61.40
2022-08-21T23:38:51.324Z,61.54
2022-08-21T23:41:03.905Z,61.94
2022-08-21T23:43:38.710Z,62.48
2022-08-21T23:46:07.833Z,62.41
2022-08-21T23:48:21.655Z,62.49
2022-08-21T23:50:36.925Z,62.82
2022-08-21T23:52:39.040Z,62.56
2022-08-21T23:55:22.999Z,62.91
2022-08-21T23:57:35.736Z,62.48
2022-08-21T23:59:58.598Z,62.47
